WAW weather

Warsaw Chopin Airport
Warsaw, Masovia, Poland

Public forecast

Using degrees Celsius for public forecast. Weather courtesy of forecast.io.

METAR (pilot weather report)

Retrieved 2019/03/25 05:30 UTC (0 seconds ago):

EPWA 250530Z 31004KT CAVOK 03/01 Q1012 NOSIG

TAF (pilot weather forecast)

Retrieved 2019/03/25 03:34 UTC (2 hours ago):

TAF EPWA 250230Z 2503/2603 VRB02KT CAVOK BECMG 2509/2512 29012KT TEMPO 2510/2520 SHRA SCT012 BKN020CB PROB40 TEMPO 2512/2516 31015G25KT 4000 SHRASN BKN014CB PROB40 TEMPO 2520/2524 BKN014